sensor_id;sensor_type;location;lat;lon;timestamp;pressure;altitude;pressure_sealevel;temperature;humidity
69318;BME280;56457;52.190;4.440;2023-12-20T00:00:29;101766.91;;;8.06;100.00
69318;BME280;56457;52.190;4.440;2023-12-20T00:01:29;101753.91;;;8.09;100.00
69318;BME280;56457;52.190;4.440;2023-12-20T00:02:29;101768.91;;;8.21;100.00
69318;BME280;56457;52.190;4.440;2023-12-20T00:03:30;101766.22;;;8.15;100.00
69318;BME280;56457;52.190;4.440;2023-12-20T00:04:30;101764.41;;;8.13;100.00
69318;BME280;56457;52.190;4.440;2023-12-20T00:05:30;101766.88;;;8.05;100.00
69318;BME280;56457;52.190;4.440;2023-12-20T00:06:35;101774.75;;;8.06;100.00
69318;BME280;56457;52.190;4.440;2023-12-20T00:07:35;101792.25;;;8.09;100.00
69318;BME280;56457;52.190;4.440;2023-12-20T00:08:35;101766.19;;;8.14;100.00
69318;BME280;56457;52.190;4.440;2023-12-20T00:09:36;101773.16;;;8.15;100.00
69318;BME280;56457;52.190;4.440;2023-12-20T00:10:36;101770.56;;;8.16;100.00
69318;BME280;56457;52.190;4.440;2023-12-20T00:11:36;101770.56;;;8.15;100.00
69318;BME280;56457;52.190;4.440;2023-12-20T00:12:37;101760.25;;;8.24;100.00
69318;BME280;56457;52.190;4.440;2023-12-20T00:13:37;101762.75;;;8.18;100.00
69318;BME280;56457;52.190;4.440;2023-12-20T00:14:37;101761.09;;;8.21;100.00
69318;BME280;56457;52.190;4.440;2023-12-20T00:15:38;101757.53;;;8.18;100.00
69318;BME280;56457;52.190;4.440;2023-12-20T00:16:38;101738.38;;;8.19;100.00
69318;BME280;56457;52.190;4.440;2023-12-20T00:17:38;101746.22;;;8.19;100.00
69318;BME280;56457;52.190;4.440;2023-12-20T00:18:39;101732.22;;;8.14;100.00
69318;BME280;56457;52.190;4.440;2023-12-20T00:19:39;101733.03;;;8.13;100.00
69318;BME280;56457;52.190;4.440;2023-12-20T00:20:39;101739.22;;;8.16;100.00
69318;BME280;56457;52.190;4.440;2023-12-20T00:21:40;101738.34;;;8.17;100.00
69318;BME280;56457;52.190;4.440;2023-12-20T00:22:40;101740.94;;;8.16;100.00
69318;BME280;56457;52.190;4.440;2023-12-20T00:23:40;101743.50;;;8.13;100.00
69318;BME280;56457;52.190;4.440;2023-12-20T00:24:41;101736.44;;;8.07;100.00
69318;BME280;56457;52.190;4.440;2023-12-20T00:25:41;101741.69;;;8.08;100.00
69318;BME280;56457;52.190;4.440;2023-12-20T00:26:41;101753.91;;;8.09;100.00
69318;BME280;56457;52.190;4.440;2023-12-20T00:27:42;101760.00;;;8.08;100.00
69318;BME280;56457;52.190;4.440;2023-12-20T00:28:42;101754.00;;;8.14;100.00
69318;BME280;56457;52.190;4.440;2023-12-20T00:29:43;101751.28;;;8.09;100.00
69318;BME280;56457;52.190;4.440;2023-12-20T00:30:47;101749.53;;;8.08;100.00
69318;BME280;56457;52.190;4.440;2023-12-20T00:31:48;101762.72;;;8.15;100.00
69318;BME280;56457;52.190;4.440;2023-12-20T00:32:48;101755.72;;;8.14;100.00
69318;BME280;56457;52.190;4.440;2023-12-20T00:33:48;101757.50;;;8.15;100.00
69318;BME280;56457;52.190;4.440;2023-12-20T00:34:49;101754.81;;;8.13;100.00
69318;BME280;56457;52.190;4.440;2023-12-20T00:35:49;101752.19;;;8.10;100.00
69318;BME280;56457;52.190;4.440;2023-12-20T00:36:49;101758.25;;;8.07;100.00
69318;BME280;56457;52.190;4.440;2023-12-20T00:37:50;101749.53;;;8.08;100.00
69318;BME280;56457;52.190;4.440;2023-12-20T00:38:50;101745.22;;;8.10;100.00
69318;BME280;56457;52.190;4.440;2023-12-20T00:39:51;101754.72;;;8.07;100.00
69318;BME280;56457;52.190;4.440;2023-12-20T00:40:51;101748.69;;;8.09;100.00
69318;BME280;56457;52.190;4.440;2023-12-20T00:41:52;101750.44;;;8.10;100.00
69318;BME280;56457;52.190;4.440;2023-12-20T00:42:52;101749.53;;;8.08;100.00
69318;BME280;56457;52.190;4.440;2023-12-20T00:43:52;101762.59;;;8.08;100.00
69318;BME280;56457;52.190;4.440;2023-12-20T00:44:52;101753.06;;;8.12;100.00
69318;BME280;56457;52.190;4.440;2023-12-20T00:45:53;101754.00;;;8.14;100.00
69318;BME280;56457;52.190;4.440;2023-12-20T00:46:53;101750.53;;;8.17;100.00
69318;BME280;56457;52.190;4.440;2023-12-20T00:47:53;101754.03;;;8.17;100.00
69318;BME280;56457;52.190;4.440;2023-12-20T00:48:54;101764.56;;;8.22;100.00
69318;BME280;56457;52.190;4.440;2023-12-20T00:49:54;101755.03;;;8.25;100.00
69318;BME280;56457;52.190;4.440;2023-12-20T00:50:55;101764.59;;;8.25;100.00
69318;BME280;56457;52.190;4.440;2023-12-20T00:51:55;101768.97;;;8.24;100.00
69318;BME280;56457;52.190;4.440;2023-12-20T00:52:55;101765.56;;;8.28;100.00
69318;BME280;56457;52.190;4.440;2023-12-20T00:53:56;101770.72;;;8.25;100.00
69318;BME280;56457;52.190;4.440;2023-12-20T00:54:56;101774.28;;;8.29;100.00
69318;BME280;56457;52.190;4.440;2023-12-20T00:55:56;101773.41;;;8.30;100.00
69318;BME280;56457;52.190;4.440;2023-12-20T00:56:58;101772.53;;;8.29;100.00
69318;BME280;56457;52.190;4.440;2023-12-20T00:57:59;101773.44;;;8.31;100.00
69318;BME280;56457;52.190;4.440;2023-12-20T00:59:00;101775.13;;;8.26;100.00
69318;BME280;56457;52.190;4.440;2023-12-20T01:00:00;101773.44;;;8.31;100.00
69318;BME280;56457;52.190;4.440;2023-12-20T01:01:01;101775.16;;;8.29;100.00
69318;BME280;56457;52.190;4.440;2023-12-20T01:02:01;101766.47;;;8.32;100.00
69318;BME280;56457;52.190;4.440;2023-12-20T01:03:01;101761.22;;;8.30;100.00
69318;BME280;56457;52.190;4.440;2023-12-20T01:04:02;101761.28;;;8.33;100.00
69318;BME280;56457;52.190;4.440;2023-12-20T01:05:02;101770.06;;;8.35;100.00
69318;BME280;56457;52.190;4.440;2023-12-20T01:06:03;101767.31;;;8.31;100.00
69318;BME280;56457;52.190;4.440;2023-12-20T01:07:04;101762.22;;;8.37;100.00
69318;BME280;56457;52.190;4.440;2023-12-20T01:08:05;101768.38;;;8.39;100.00
69318;BME280;56457;52.190;4.440;2023-12-20T01:09:05;101762.38;;;8.45;100.00
69318;BME280;56457;52.190;4.440;2023-12-20T01:10:06;101761.38;;;8.38;100.00
69318;BME280;56457;52.190;4.440;2023-12-20T01:11:06;101748.28;;;8.36;100.00
69318;BME280;56457;52.190;4.440;2023-12-20T01:12:07;101752.56;;;8.33;100.00
69318;BME280;56457;52.190;4.440;2023-12-20T01:13:07;101751.63;;;8.31;100.00
69318;BME280;56457;52.190;4.440;2023-12-20T01:14:08;101758.72;;;8.36;100.00
69318;BME280;56457;52.190;4.440;2023-12-20T01:15:09;101755.13;;;8.31;100.00
69318;BME280;56457;52.190;4.440;2023-12-20T01:16:10;101758.75;;;8.38;100.00
69318;BME280;56457;52.190;4.440;2023-12-20T01:17:11;101749.16;;;8.37;100.00
69318;BME280;56457;52.190;4.440;2023-12-20T01:18:11;101752.69;;;8.39;100.00
69318;BME280;56457;52.190;4.440;2023-12-20T01:19:12;101750.91;;;8.38;100.00
69318;BME280;56457;52.190;4.440;2023-12-20T01:20:13;101757.06;;;8.42;100.00
69318;BME280;56457;52.190;4.440;2023-12-20T01:21:13;101749.25;;;8.43;100.00
69318;BME280;56457;52.190;4.440;2023-12-20T01:22:13;101764.03;;;8.41;100.00
69318;BME280;56457;52.190;4.440;2023-12-20T01:23:14;101761.53;;;8.47;100.00
69318;BME280;56457;52.190;4.440;2023-12-20T01:24:14;101753.69;;;8.47;100.00
69318;BME280;56457;52.190;4.440;2023-12-20T01:25:14;101732.66;;;8.41;100.00
69318;BME280;56457;52.190;4.440;2023-12-20T01:26:15;101754.47;;;8.42;100.00
69318;BME280;56457;52.190;4.440;2023-12-20T01:27:15;101758.78;;;8.40;100.00
69318;BME280;56457;52.190;4.440;2023-12-20T01:28:15;101756.19;;;8.41;100.00
69318;BME280;56457;52.190;4.440;2023-12-20T01:29:15;101757.06;;;8.42;100.00
69318;BME280;56457;52.190;4.440;2023-12-20T01:30:16;101762.31;;;8.42;100.00
69318;BME280;56457;52.190;4.440;2023-12-20T01:31:16;101754.44;;;8.39;100.00
69318;BME280;56457;52.190;4.440;2023-12-20T01:32:16;101750.09;;;8.41;100.00
69318;BME280;56457;52.190;4.440;2023-12-20T01:33:16;101755.34;;;8.42;100.00
69318;BME280;56457;52.190;4.440;2023-12-20T01:34:17;101758.75;;;8.38;100.00
69318;BME280;56457;52.190;4.440;2023-12-20T01:35:17;101752.72;;;8.41;100.00
69318;BME280;56457;52.190;4.440;2023-12-20T01:36:18;101751.03;;;8.46;100.00
69318;BME280;56457;52.190;4.440;2023-12-20T01:37:18;101749.22;;;8.40;100.00
69318;BME280;56457;52.190;4.440;2023-12-20T01:38:18;101740.53;;;8.44;100.00
69318;BME280;56457;52.190;4.440;2023-12-20T01:39:18;101747.47;;;8.41;100.00
69318;BME280;56457;52.190;4.440;2023-12-20T01:40:19;101753.44;;;8.35;100.00
69318;BME280;56457;52.190;4.440;2023-12-20T01:41:19;101749.94;;;8.33;100.00
69318;BME280;56457;52.190;4.440;2023-12-20T01:42:19;101751.69;;;8.34;100.00
69318;BME280;56457;52.190;4.440;2023-12-20T01:43:20;101762.97;;;8.31;100.00
69318;BME280;56457;52.190;4.440;2023-12-20T01:44:20;101754.38;;;8.35;100.00
69318;BME280;56457;52.190;4.440;2023-12-20T01:45:20;101754.28;;;8.32;100.00
69318;BME280;56457;52.190;4.440;2023-12-20T01:46:20;101758.59;;;8.30;100.00
69318;BME280;56457;52.190;4.440;2023-12-20T01:47:21;101755.13;;;8.31;100.00
69318;BME280;56457;52.190;4.440;2023-12-20T01:48:22;101748.16;;;8.32;100.00
69318;BME280;56457;52.190;4.440;2023-12-20T01:49:23;101766.53;;;8.35;100.00
69318;BME280;56457;52.190;4.440;2023-12-20T01:50:24;101756.97;;;8.35;100.00
69318;BME280;56457;52.190;4.440;2023-12-20T01:51:24;101758.72;;;8.36;100.00
69318;BME280;56457;52.190;4.440;2023-12-20T01:52:27;101752.69;;;8.39;100.00
69318;BME280;56457;52.190;4.440;2023-12-20T01:53:27;101747.34;;;8.33;100.00
69318;BME280;56457;52.190;4.440;2023-12-20T01:54:28;101748.28;;;8.36;100.00
69318;BME280;56457;52.190;4.440;2023-12-20T01:55:33;101738.56;;;8.31;100.00
69318;BME280;56457;52.190;4.440;2023-12-20T01:56:34;101751.53;;;8.25;100.00
69318;BME280;56457;52.190;4.440;2023-12-20T01:57:35;101738.50;;;8.26;100.00
69318;BME280;56457;52.190;4.440;2023-12-20T01:58:37;101737.59;;;8.26;100.00
69318;BME280;56457;52.190;4.440;2023-12-20T01:59:41;101739.34;;;8.25;100.00
69318;BME280;56457;52.190;4.440;2023-12-20T02:00:42;101748.03;;;8.23;100.00
69318;BME280;56457;52.190;4.440;2023-12-20T02:01:42;101745.41;;;8.23;100.00
69318;BME280;56457;52.190;4.440;2023-12-20T02:02:42;101747.97;;;8.20;100.00
69318;BME280;56457;52.190;4.440;2023-12-20T02:03:43;101755.91;;;8.26;100.00
69318;BME280;56457;52.190;4.440;2023-12-20T02:04:43;101763.72;;;8.23;100.00
69318;BME280;56457;52.190;4.440;2023-12-20T02:05:44;101752.50;;;8.30;100.00
69318;BME280;56457;52.190;4.440;2023-12-20T02:06:44;101755.09;;;8.30;100.00
69318;BME280;56457;52.190;4.440;2023-12-20T02:07:46;101755.25;;;8.36;100.00
69318;BME280;56457;52.190;4.440;2023-12-20T02:08:46;101766.47;;;8.32;100.00
69318;BME280;56457;52.190;4.440;2023-12-20T02:09:46;101754.22;;;8.28;100.00
69318;BME280;56457;52.190;4.440;2023-12-20T02:10:47;101751.59;;;8.28;100.00
69318;BME280;56457;52.190;4.440;2023-12-20T02:11:47;101750.66;;;8.26;100.00
69318;BME280;56457;52.190;4.440;2023-12-20T02:12:47;101745.44;;;8.26;100.00
69318;BME280;56457;52.190;4.440;2023-12-20T02:13:48;101753.44;;;8.33;100.00
69318;BME280;56457;52.190;4.440;2023-12-20T02:14:48;101745.53;;;8.32;100.00
69318;BME280;56457;52.190;4.440;2023-12-20T02:15:49;101752.50;;;8.30;100.00
69318;BME280;56457;52.190;4.440;2023-12-20T02:16:49;101747.25;;;8.28;100.00
69318;BME280;56457;52.190;4.440;2023-12-20T02:17:49;101742.84;;;8.26;100.00
69318;BME280;56457;52.190;4.440;2023-12-20T02:18:50;101751.59;;;8.26;100.00
69318;BME280;56457;52.190;4.440;2023-12-20T02:19:50;101755.06;;;8.27;100.00
69318;BME280;56457;52.190;4.440;2023-12-20T02:20:51;101746.28;;;8.23;100.00
69318;BME280;56457;52.190;4.440;2023-12-20T02:22:04;101742.78;;;8.21;100.00
69318;BME280;56457;52.190;4.440;2023-12-20T02:23:04;101749.78;;;8.25;100.00
69318;BME280;56457;52.190;4.440;2023-12-20T02:24:04;101741.03;;;8.20;100.00
69318;BME280;56457;52.190;4.440;2023-12-20T02:25:05;101743.59;;;8.19;100.00
69318;BME280;56457;52.190;4.440;2023-12-20T02:26:05;101737.47;;;8.18;100.00
69318;BME280;56457;52.190;4.440;2023-12-20T02:27:06;101745.31;;;8.17;100.00
69318;BME280;56457;52.190;4.440;2023-12-20T02:28:07;101748.88;;;8.22;100.00
69318;BME280;56457;52.190;4.440;2023-12-20T02:29:07;101742.84;;;8.26;100.00
69318;BME280;56457;52.190;4.440;2023-12-20T02:30:08;101748.09;;;8.27;100.00
69318;BME280;56457;52.190;4.440;2023-12-20T02:31:08;101751.59;;;8.28;100.00
69318;BME280;56457;52.190;4.440;2023-12-20T02:32:09;101743.75;;;8.28;100.00
69318;BME280;56457;52.190;4.440;2023-12-20T02:33:10;101751.69;;;8.32;100.00
69318;BME280;56457;52.190;4.440;2023-12-20T02:34:12;101738.63;;;8.34;100.00
69318;BME280;56457;52.190;4.440;2023-12-20T02:35:12;101728.97;;;8.31;100.00
69318;BME280;56457;52.190;4.440;2023-12-20T02:36:12;101736.94;;;8.36;100.00
69318;BME280;56457;52.190;4.440;2023-12-20T02:37:13;101746.47;;;8.34;100.00
69318;BME280;56457;52.190;4.440;2023-12-20T02:38:13;101739.50;;;8.34;100.00
69318;BME280;56457;52.190;4.440;2023-12-20T02:39:13;101729.03;;;8.34;100.00
69318;BME280;56457;52.190;4.440;2023-12-20T02:40:14;101735.09;;;8.32;100.00
69318;BME280;56457;52.190;4.440;2023-12-20T02:41:14;101741.22;;;8.32;100.00
69318;BME280;56457;52.190;4.440;2023-12-20T02:42:16;101737.69;;;8.30;100.00
69318;BME280;56457;52.190;4.440;2023-12-20T02:43:17;101742.91;;;8.29;100.00
69318;BME280;56457;52.190;4.440;2023-12-20T02:44:17;101734.13;;;8.25;100.00
69318;BME280;56457;52.190;4.440;2023-12-20T02:45:17;101739.41;;;8.28;100.00
69318;BME280;56457;52.190;4.440;2023-12-20T02:46:18;101728.97;;;8.30;100.00
69318;BME280;56457;52.190;4.440;2023-12-20T02:47:18;101727.16;;;8.26;100.00
69318;BME280;56457;52.190;4.440;2023-12-20T02:48:18;101721.03;;;8.24;100.00
69318;BME280;56457;52.190;4.440;2023-12-20T02:49:18;101720.22;;;8.28;100.00
69318;BME280;56457;52.190;4.440;2023-12-20T02:50:19;101717.66;;;8.31;100.00
69318;BME280;56457;52.190;4.440;2023-12-20T02:51:19;101712.41;;;8.31;100.00
69318;BME280;56457;52.190;4.440;2023-12-20T02:52:19;101712.41;;;8.31;100.00
69318;BME280;56457;52.190;4.440;2023-12-20T02:53:19;101699.31;;;8.26;100.00
69318;BME280;56457;52.190;4.440;2023-12-20T02:54:20;101713.28;;;8.30;100.00
69318;BME280;56457;52.190;4.440;2023-12-20T02:55:20;101701.94;;;8.29;100.00
69318;BME280;56457;52.190;4.440;2023-12-20T02:56:20;101711.53;;;8.29;100.00
69318;BME280;56457;52.190;4.440;2023-12-20T02:57:21;101709.84;;;8.32;100.00
69318;BME280;56457;52.190;4.440;2023-12-20T02:58:21;101715.88;;;8.28;100.00
69318;BME280;56457;52.190;4.440;2023-12-20T02:59:21;101710.78;;;8.36;100.00
69318;BME280;56457;52.190;4.440;2023-12-20T03:00:21;101714.16;;;8.32;100.00
69318;BME280;56457;52.190;4.440;2023-12-20T03:01:22;101721.97;;;8.27;100.00
69318;BME280;56457;52.190;4.440;2023-12-20T03:02:22;101727.25;;;8.32;100.00
69318;BME280;56457;52.190;4.440;2023-12-20T03:03:22;101715.91;;;8.31;100.00
69318;BME280;56457;52.190;4.440;2023-12-20T03:04:22;101715.91;;;8.30;100.00
69318;BME280;56457;52.190;4.440;2023-12-20T03:05:23;101716.78;;;8.30;100.00
69318;BME280;56457;52.190;4.440;2023-12-20T03:06:23;101715.00;;;8.28;100.00
69318;BME280;56457;52.190;4.440;2023-12-20T03:07:23;101711.56;;;8.32;100.00
69318;BME280;56457;52.190;4.440;2023-12-20T03:08:24;101712.41;;;8.31;100.00
69318;BME280;56457;52.190;4.440;2023-12-20T03:09:24;101716.69;;;8.26;100.00
69318;BME280;56457;52.190;4.440;2023-12-20T03:10:24;101712.31;;;8.23;100.00
69318;BME280;56457;52.190;4.440;2023-12-20T03:11:28;101701.84;;;8.22;100.00
69318;BME280;56457;52.190;4.440;2023-12-20T03:12:28;101715.75;;;8.21;100.00
69318;BME280;56457;52.190;4.440;2023-12-20T03:13:29;101722.75;;;8.22;100.00
69318;BME280;56457;52.190;4.440;2023-12-20T03:14:29;101724.44;;;8.20;100.00
69318;BME280;56457;52.190;4.440;2023-12-20T03:15:29;101721.00;;;8.21;100.00
69318;BME280;56457;52.190;4.440;2023-12-20T03:16:29;101710.44;;;8.16;100.00
69318;BME280;56457;52.190;4.440;2023-12-20T03:17:31;101710.47;;;8.18;100.00
69318;BME280;56457;52.190;4.440;2023-12-20T03:18:31;101727.00;;;8.17;100.00
69318;BME280;56457;52.190;4.440;2023-12-20T03:19:31;101708.69;;;8.14;100.00
69318;BME280;56457;52.190;4.440;2023-12-20T03:20:32;101709.56;;;8.14;100.00
69318;BME280;56457;52.190;4.440;2023-12-20T03:21:34;101705.31;;;8.21;100.00
69318;BME280;56457;52.190;4.440;2023-12-20T03:22:34;101713.97;;;8.20;100.00
69318;BME280;56457;52.190;4.440;2023-12-20T03:23:35;101709.66;;;8.20;100.00
69318;BME280;56457;52.190;4.440;2023-12-20T03:24:35;101707.00;;;8.19;100.00
69318;BME280;56457;52.190;4.440;2023-12-20T03:25:35;101705.31;;;8.21;100.00
69318;BME280;56457;52.190;4.440;2023-12-20T03:26:36;101694.78;;;8.18;100.00
69318;BME280;56457;52.190;4.440;2023-12-20T03:27:39;101718.31;;;8.18;100.00
69318;BME280;56457;52.190;4.440;2023-12-20T03:28:39;101705.25;;;8.19;100.00
69318;BME280;56457;52.190;4.440;2023-12-20T03:29:40;101706.19;;;8.21;100.00
69318;BME280;56457;52.190;4.440;2023-12-20T03:30:40;101707.16;;;8.28;100.00
69318;BME280;56457;52.190;4.440;2023-12-20T03:31:41;101701.84;;;8.22;100.00
69318;BME280;56457;52.190;4.440;2023-12-20T03:32:41;101701.88;;;8.25;100.00
69318;BME280;56457;52.190;4.440;2023-12-20T03:33:41;101707.06;;;8.22;100.00
69318;BME280;56457;52.190;4.440;2023-12-20T03:34:42;101714.88;;;8.20;100.00
69318;BME280;56457;52.190;4.440;2023-12-20T03:35:42;101702.63;;;8.18;100.00
69318;BME280;56457;52.190;4.440;2023-12-20T03:36:43;101702.63;;;8.16;100.00
69318;BME280;56457;52.190;4.440;2023-12-20T03:37:44;101706.94;;;8.14;100.00
69318;BME280;56457;52.190;4.440;2023-12-20T03:38:44;101708.63;;;8.12;100.00
69318;BME280;56457;52.190;4.440;2023-12-20T03:39:44;101697.28;;;8.10;100.00
69318;BME280;56457;52.190;4.440;2023-12-20T03:40:44;101696.34;;;8.06;100.00
69318;BME280;56457;52.190;4.440;2023-12-20T03:41:45;101706.00;;;8.09;100.00
69318;BME280;56457;52.190;4.440;2023-12-20T03:42:45;101711.22;;;8.09;100.00
69318;BME280;56457;52.190;4.440;2023-12-20T03:43:46;101705.13;;;8.10;100.00
69318;BME280;56457;52.190;4.440;2023-12-20T03:44:46;101704.25;;;8.08;100.00
69318;BME280;56457;52.190;4.440;2023-12-20T03:45:46;101708.53;;;8.04;100.00
69318;BME280;56457;52.190;4.440;2023-12-20T03:46:46;101706.88;;;8.09;100.00
69318;BME280;56457;52.190;4.440;2023-12-20T03:47:47;101708.59;;;8.07;100.00
69318;BME280;56457;52.190;4.440;2023-12-20T03:48:48;101702.44;;;8.05;100.00
69318;BME280;56457;52.190;4.440;2023-12-20T03:49:48;101715.63;;;8.13;100.00
69318;BME280;56457;52.190;4.440;2023-12-20T03:50:49;101708.53;;;8.04;100.00
69318;BME280;56457;52.190;4.440;2023-12-20T03:51:49;101699.84;;;8.07;100.00
69318;BME280;56457;52.190;4.440;2023-12-20T03:52:49;101707.63;;;8.02;100.00
69318;BME280;56457;52.190;4.440;2023-12-20T03:53:50;101705.91;;;8.06;100.00
69318;BME280;56457;52.190;4.440;2023-12-20T03:54:50;101706.75;;;8.03;100.00
69318;BME280;56457;52.190;4.440;2023-12-20T03:55:50;101716.34;;;8.03;100.00
69318;BME280;56457;52.190;4.440;2023-12-20T03:56:50;101715.47;;;8.02;100.00
69318;BME280;56457;52.190;4.440;2023-12-20T03:57:51;101711.16;;;8.06;100.00
69318;BME280;56457;52.190;4.440;2023-12-20T03:58:51;101714.63;;;8.05;100.00
69318;BME280;56457;52.190;4.440;2023-12-20T03:59:51;101715.47;;;8.04;100.00
69318;BME280;56457;52.190;4.440;2023-12-20T04:00:52;101718.97;;;8.03;100.00
69318;BME280;56457;52.190;4.440;2023-12-20T04:01:52;101705.03;;;8.05;100.00
69318;BME280;56457;52.190;4.440;2023-12-20T04:02:52;101713.75;;;8.06;100.00
69318;BME280;56457;52.190;4.440;2023-12-20T04:03:52;101713.72;;;8.01;100.00
69318;BME280;56457;52.190;4.440;2023-12-20T04:04:53;101728.56;;;8.05;100.00
69318;BME280;56457;52.190;4.440;2023-12-20T04:05:53;101717.25;;;8.06;100.00
69318;BME280;56457;52.190;4.440;2023-12-20T04:06:53;101713.84;;;8.10;100.00
69318;BME280;56457;52.190;4.440;2023-12-20T04:07:54;101713.81;;;8.07;100.00
69318;BME280;56457;52.190;4.440;2023-12-20T04:08:54;101708.69;;;8.14;100.00
69318;BME280;56457;52.190;4.440;2023-12-20T04:09:55;101710.38;;;8.12;100.00
69318;BME280;56457;52.190;4.440;2023-12-20T04:10:55;101708.53;;;8.06;100.00
69318;BME280;56457;52.190;4.440;2023-12-20T04:11:55;101715.56;;;8.08;100.00
69318;BME280;56457;52.190;4.440;2023-12-20T04:12:56;101709.47;;;8.09;100.00
69318;BME280;56457;52.190;4.440;2023-12-20T04:13:56;101713.00;;;8.12;100.00
69318;BME280;56457;52.190;4.440;2023-12-20T04:14:57;101699.88;;;8.08;100.00
69318;BME280;56457;52.190;4.440;2023-12-20T04:15:57;101713.75;;;8.04;100.00
69318;BME280;56457;52.190;4.440;2023-12-20T04:16:58;101708.50;;;8.01;100.00
69318;BME280;56457;52.190;4.440;2023-12-20T04:17:58;101714.59;;;8.03;100.00
69318;BME280;56457;52.190;4.440;2023-12-20T04:18:58;101704.19;;;8.06;100.00
69318;BME280;56457;52.190;4.440;2023-12-20T04:19:59;101697.16;;;8.02;100.00
69318;BME280;56457;52.190;4.440;2023-12-20T04:20:59;101704.94;;;7.99;100.00
69318;BME280;56457;52.190;4.440;2023-12-20T04:21:59;101701.56;;;8.05;100.00
69318;BME280;56457;52.190;4.440;2023-12-20T04:22:59;101699.78;;;8.02;100.00
69318;BME280;56457;52.190;4.440;2023-12-20T04:24:00;101702.31;;;7.98;100.00
69318;BME280;56457;52.190;4.440;2023-12-20T04:25:00;101691.84;;;7.96;100.00
69318;BME280;56457;52.190;4.440;2023-12-20T04:26:00;101701.47;;;8.00;100.00
69318;BME280;56457;52.190;4.440;2023-12-20T04:27:01;101700.56;;;7.98;100.00
69318;BME280;56457;52.190;4.440;2023-12-20T04:28:01;101703.19;;;7.98;100.00
69318;BME280;56457;52.190;4.440;2023-12-20T04:29:02;101698.81;;;7.96;100.00
69318;BME280;56457;52.190;4.440;2023-12-20T04:30:03;101699.69;;;7.98;100.00
69318;BME280;56457;52.190;4.440;2023-12-20T04:31:03;101701.47;;;7.99;100.00
69318;BME280;56457;52.190;4.440;2023-12-20T04:32:04;101692.81;;;8.01;100.00
69318;BME280;56457;52.190;4.440;2023-12-20T04:33:04;101692.81;;;8.01;100.00
69318;BME280;56457;52.190;4.440;2023-12-20T04:34:05;101690.16;;;8.00;100.00
69318;BME280;56457;52.190;4.440;2023-12-20T04:35:05;101685.00;;;8.04;100.00
69318;BME280;56457;52.190;4.440;2023-12-20T04:36:06;101684.13;;;8.04;100.00
69318;BME280;56457;52.190;4.440;2023-12-20T04:37:06;101683.44;;;8.16;100.00
69318;BME280;56457;52.190;4.440;2023-12-20T04:38:06;101685.22;;;8.20;100.00
69318;BME280;56457;52.190;4.440;2023-12-20T04:39:07;101678.22;;;8.17;100.00
69318;BME280;56457;52.190;4.440;2023-12-20T04:40:07;101688.69;;;8.19;100.00
69318;BME280;56457;52.190;4.440;2023-12-20T04:41:08;101689.63;;;8.22;100.00
69318;BME280;56457;52.190;4.440;2023-12-20T04:42:08;101689.63;;;8.22;100.00
69318;BME280;56457;52.190;4.440;2023-12-20T04:43:08;101686.19;;;8.25;100.00
69318;BME280;56457;52.190;4.440;2023-12-20T04:44:09;101676.50;;;8.19;100.00
69318;BME280;56457;52.190;4.440;2023-12-20T04:45:09;101680.81;;;8.16;100.00
69318;BME280;56457;52.190;4.440;2023-12-20T04:46:12;101679.97;;;8.17;100.00
69318;BME280;56457;52.190;4.440;2023-12-20T04:47:13;101678.22;;;8.16;100.00
69318;BME280;56457;52.190;4.440;2023-12-20T04:48:13;101674.72;;;8.14;100.00
69318;BME280;56457;52.190;4.440;2023-12-20T04:49:13;101670.31;;;8.13;100.00
69318;BME280;56457;52.190;4.440;2023-12-20T04:50:13;101670.34;;;8.14;100.00
69318;BME280;56457;52.190;4.440;2023-12-20T04:51:14;101666.13;;;8.22;100.00
69318;BME280;56457;52.190;4.440;2023-12-20T04:52:15;101659.03;;;8.15;100.00
69318;BME280;56457;52.190;4.440;2023-12-20T04:53:15;101673.84;;;8.15;100.00
69318;BME280;56457;52.190;4.440;2023-12-20T04:54:16;101677.22;;;8.07;100.00
69318;BME280;56457;52.190;4.440;2023-12-20T04:55:16;101664.97;;;8.06;100.00
69318;BME280;56457;52.190;4.440;2023-12-20T04:56:16;101667.59;;;8.05;100.00
69318;BME280;56457;52.190;4.440;2023-12-20T04:57:16;101667.66;;;8.09;100.00
69318;BME280;56457;52.190;4.440;2023-12-20T04:58:17;101670.28;;;8.09;100.00
69318;BME280;56457;52.190;4.440;2023-12-20T04:59:17;101667.59;;;8.06;100.00
69318;BME280;56457;52.190;4.440;2023-12-20T05:00:17;101673.69;;;8.05;100.00
69318;BME280;56457;52.190;4.440;2023-12-20T05:01:18;101674.53;;;8.03;100.00
69318;BME280;56457;52.190;4.440;2023-12-20T05:02:18;101677.22;;;8.07;100.00
69318;BME280;56457;52.190;4.440;2023-12-20T05:03:18;101683.25;;;8.05;100.00
69318;BME280;56457;52.190;4.440;2023-12-20T05:04:19;101689.34;;;8.04;100.00
69318;BME280;56457;52.190;4.440;2023-12-20T05:05:20;101687.69;;;8.07;100.00
69318;BME280;56457;52.190;4.440;2023-12-20T05:06:20;101694.69;;;8.12;100.00
69318;BME280;56457;52.190;4.440;2023-12-20T05:07:20;101688.59;;;8.11;100.00
69318;BME280;56457;52.190;4.440;2023-12-20T05:08:21;101692.94;;;8.10;100.00
69318;BME280;56457;52.190;4.440;2023-12-20T05:09:21;101688.56;;;8.09;100.00
69318;BME280;56457;52.190;4.440;2023-12-20T05:10:21;101687.72;;;8.10;100.00
69318;BME280;56457;52.190;4.440;2023-12-20T05:11:22;101686.94;;;8.16;100.00
69318;BME280;56457;52.190;4.440;2023-12-20T05:12:22;101694.88;;;8.24;100.00
69318;BME280;56457;52.190;4.440;2023-12-20T05:13:22;101683.53;;;8.20;100.00
69318;BME280;56457;52.190;4.440;2023-12-20T05:14:23;101687.13;;;8.28;100.00
69318;BME280;56457;52.190;4.440;2023-12-20T05:15:24;101685.31;;;8.24;100.00
69318;BME280;56457;52.190;4.440;2023-12-20T05:16:25;101696.63;;;8.23;100.00